sensor_id;sensor_type;location;lat;lon;timestamp;temperature;humidity
34492;DHT22;20737;49.908;8.126;2022-08-03T00:01:16;19.60;99.90
34492;DHT22;20737;49.908;8.126;2022-08-03T00:03:43;19.50;99.90
34492;DHT22;20737;49.908;8.126;2022-08-03T00:06:10;19.40;99.90
34492;DHT22;20737;49.908;8.126;2022-08-03T00:08:37;19.30;99.90
34492;DHT22;20737;49.908;8.126;2022-08-03T00:11:04;19.40;99.90
34492;DHT22;20737;49.908;8.126;2022-08-03T00:13:32;19.40;99.90
34492;DHT22;20737;49.908;8.126;2022-08-03T00:15:58;19.20;99.90
34492;DHT22;20737;49.908;8.126;2022-08-03T00:18:27;19.20;99.90
34492;DHT22;20737;49.908;8.126;2022-08-03T00:20:53;19.20;99.90
34492;DHT22;20737;49.908;8.126;2022-08-03T00:23:20;19.20;99.90
34492;DHT22;20737;49.908;8.126;2022-08-03T00:25:47;19.20;99.90
34492;DHT22;20737;49.908;8.126;2022-08-03T00:28:13;19.10;99.90
34492;DHT22;20737;49.908;8.126;2022-08-03T00:30:40;19.10;99.90
34492;DHT22;20737;49.908;8.126;2022-08-03T00:33:07;19.10;99.90
34492;DHT22;20737;49.908;8.126;2022-08-03T00:35:36;19.00;99.90
34492;DHT22;20737;49.908;8.126;2022-08-03T00:38:03;19.00;99.90
34492;DHT22;20737;49.908;8.126;2022-08-03T00:40:29;18.90;99.90
34492;DHT22;20737;49.908;8.126;2022-08-03T00:42:59;18.70;99.90
34492;DHT22;20737;49.908;8.126;2022-08-03T00:45:27;18.80;99.90
34492;DHT22;20737;49.908;8.126;2022-08-03T00:47:54;18.70;99.90
34492;DHT22;20737;49.908;8.126;2022-08-03T00:50:23;18.70;99.90
34492;DHT22;20737;49.908;8.126;2022-08-03T00:52:53;18.70;99.90
34492;DHT22;20737;49.908;8.126;2022-08-03T00:55:21;18.70;99.90
34492;DHT22;20737;49.908;8.126;2022-08-03T00:57:48;18.70;99.90
34492;DHT22;20737;49.908;8.126;2022-08-03T01:00:17;18.70;99.90
34492;DHT22;20737;49.908;8.126;2022-08-03T01:02:45;18.60;99.90
34492;DHT22;20737;49.908;8.126;2022-08-03T01:05:12;18.60;99.90
34492;DHT22;20737;49.908;8.126;2022-08-03T01:07:45;18.60;99.90
34492;DHT22;20737;49.908;8.126;2022-08-03T01:10:25;18.60;99.90
34492;DHT22;20737;49.908;8.126;2022-08-03T01:12:58;18.60;99.90
34492;DHT22;20737;49.908;8.126;2022-08-03T01:15:33;18.50;99.90
34492;DHT22;20737;49.908;8.126;2022-08-03T01:18:08;18.40;99.90
34492;DHT22;20737;49.908;8.126;2022-08-03T01:20:41;18.40;99.90
34492;DHT22;20737;49.908;8.126;2022-08-03T01:23:26;18.40;99.90
34492;DHT22;20737;49.908;8.126;2022-08-03T01:26:08;18.50;99.90
34492;DHT22;20737;49.908;8.126;2022-08-03T01:29:00;18.30;99.90
34492;DHT22;20737;49.908;8.126;2022-08-03T01:31:39;18.30;99.90
34492;DHT22;20737;49.908;8.126;2022-08-03T01:34:10;18.30;99.90
34492;DHT22;20737;49.908;8.126;2022-08-03T01:36:43;18.10;99.90
34492;DHT22;20737;49.908;8.126;2022-08-03T01:39:15;18.00;99.90
34492;DHT22;20737;49.908;8.126;2022-08-03T01:41:46;17.90;99.90
34492;DHT22;20737;49.908;8.126;2022-08-03T01:44:14;17.90;99.90
34492;DHT22;20737;49.908;8.126;2022-08-03T01:46:43;17.80;99.90
34492;DHT22;20737;49.908;8.126;2022-08-03T01:49:14;17.90;99.90
34492;DHT22;20737;49.908;8.126;2022-08-03T01:51:43;17.90;99.90
34492;DHT22;20737;49.908;8.126;2022-08-03T01:54:12;17.90;99.90
34492;DHT22;20737;49.908;8.126;2022-08-03T01:56:39;17.90;99.90
34492;DHT22;20737;49.908;8.126;2022-08-03T01:59:07;17.80;99.90
34492;DHT22;20737;49.908;8.126;2022-08-03T02:01:36;17.70;99.90
34492;DHT22;20737;49.908;8.126;2022-08-03T02:04:06;17.60;99.90
34492;DHT22;20737;49.908;8.126;2022-08-03T02:06:33;17.60;99.90
34492;DHT22;20737;49.908;8.126;2022-08-03T02:09:02;17.60;99.90
34492;DHT22;20737;49.908;8.126;2022-08-03T02:11:30;17.60;99.90
34492;DHT22;20737;49.908;8.126;2022-08-03T02:14:00;17.60;99.90
34492;DHT22;20737;49.908;8.126;2022-08-03T02:16:28;17.70;99.90
34492;DHT22;20737;49.908;8.126;2022-08-03T02:18:56;17.70;99.90
34492;DHT22;20737;49.908;8.126;2022-08-03T02:21:26;17.60;99.90
34492;DHT22;20737;49.908;8.126;2022-08-03T02:23:54;17.70;99.90
34492;DHT22;20737;49.908;8.126;2022-08-03T02:26:22;17.60;99.90
34492;DHT22;20737;49.908;8.126;2022-08-03T02:28:51;17.60;99.90
34492;DHT22;20737;49.908;8.126;2022-08-03T02:31:21;17.60;99.90
34492;DHT22;20737;49.908;8.126;2022-08-03T02:33:52;17.50;99.90
34492;DHT22;20737;49.908;8.126;2022-08-03T02:36:22;17.50;99.90
34492;DHT22;20737;49.908;8.126;2022-08-03T02:38:53;17.50;99.90
34492;DHT22;20737;49.908;8.126;2022-08-03T02:41:23;17.50;99.90
34492;DHT22;20737;49.908;8.126;2022-08-03T02:43:54;17.50;99.90
34492;DHT22;20737;49.908;8.126;2022-08-03T02:46:24;17.50;99.90
34492;DHT22;20737;49.908;8.126;2022-08-03T02:48:55;17.40;99.90
34492;DHT22;20737;49.908;8.126;2022-08-03T02:51:22;17.40;99.90
34492;DHT22;20737;49.908;8.126;2022-08-03T02:53:51;17.30;99.90
34492;DHT22;20737;49.908;8.126;2022-08-03T02:56:20;17.40;99.90
34492;DHT22;20737;49.908;8.126;2022-08-03T02:58:48;17.30;99.90
34492;DHT22;20737;49.908;8.126;2022-08-03T03:01:18;17.30;99.90
34492;DHT22;20737;49.908;8.126;2022-08-03T03:03:46;17.30;99.90
34492;DHT22;20737;49.908;8.126;2022-08-03T03:06:15;17.30;99.90
34492;DHT22;20737;49.908;8.126;2022-08-03T03:08:42;17.30;99.90
34492;DHT22;20737;49.908;8.126;2022-08-03T03:11:12;17.30;99.90
34492;DHT22;20737;49.908;8.126;2022-08-03T03:13:41;17.20;99.90
34492;DHT22;20737;49.908;8.126;2022-08-03T03:16:09;17.00;99.90
34492;DHT22;20737;49.908;8.126;2022-08-03T03:18:38;17.00;99.90
34492;DHT22;20737;49.908;8.126;2022-08-03T03:21:07;16.90;99.90
34492;DHT22;20737;49.908;8.126;2022-08-03T03:23:37;16.90;99.90
34492;DHT22;20737;49.908;8.126;2022-08-03T03:26:05;17.00;99.90
34492;DHT22;20737;49.908;8.126;2022-08-03T03:28:34;17.00;99.90
34492;DHT22;20737;49.908;8.126;2022-08-03T03:31:03;16.90;99.90
34492;DHT22;20737;49.908;8.126;2022-08-03T03:33:31;16.90;99.90
34492;DHT22;20737;49.908;8.126;2022-08-03T03:35:58;16.80;99.90
34492;DHT22;20737;49.908;8.126;2022-08-03T03:38:25;16.80;99.90
34492;DHT22;20737;49.908;8.126;2022-08-03T03:40:52;16.80;99.90
34492;DHT22;20737;49.908;8.126;2022-08-03T03:43:19;16.80;99.90
34492;DHT22;20737;49.908;8.126;2022-08-03T03:45:50;16.80;99.90
34492;DHT22;20737;49.908;8.126;2022-08-03T03:48:18;16.70;99.90
34492;DHT22;20737;49.908;8.126;2022-08-03T03:50:45;16.70;99.90
34492;DHT22;20737;49.908;8.126;2022-08-03T03:53:14;16.60;99.90
34492;DHT22;20737;49.908;8.126;2022-08-03T03:55:41;16.60;99.90
34492;DHT22;20737;49.908;8.126;2022-08-03T03:58:08;16.70;99.90
34492;DHT22;20737;49.908;8.126;2022-08-03T04:00:35;16.70;99.90
34492;DHT22;20737;49.908;8.126;2022-08-03T04:03:03;16.70;99.90
34492;DHT22;20737;49.908;8.126;2022-08-03T04:05:30;16.70;99.90
34492;DHT22;20737;49.908;8.126;2022-08-03T04:08:17;16.60;99.90
34492;DHT22;20737;49.908;8.126;2022-08-03T04:11:08;16.60;99.90
34492;DHT22;20737;49.908;8.126;2022-08-03T04:13:38;16.70;99.90
34492;DHT22;20737;49.908;8.126;2022-08-03T04:16:08;16.60;99.90
34492;DHT22;20737;49.908;8.126;2022-08-03T04:18:39;16.60;99.90
34492;DHT22;20737;49.908;8.126;2022-08-03T04:21:09;16.70;99.90
34492;DHT22;20737;49.908;8.126;2022-08-03T04:23:38;16.60;99.90
34492;DHT22;20737;49.908;8.126;2022-08-03T04:26:08;16.50;99.90
34492;DHT22;20737;49.908;8.126;2022-08-03T04:28:38;16.50;99.90
34492;DHT22;20737;49.908;8.126;2022-08-03T04:31:05;16.50;99.90
34492;DHT22;20737;49.908;8.126;2022-08-03T04:33:34;16.60;99.90
34492;DHT22;20737;49.908;8.126;2022-08-03T04:36:05;16.60;99.90
34492;DHT22;20737;49.908;8.126;2022-08-03T04:38:36;16.70;99.90
34492;DHT22;20737;49.908;8.126;2022-08-03T04:41:04;16.70;99.90
34492;DHT22;20737;49.908;8.126;2022-08-03T04:43:32;16.70;99.90
34492;DHT22;20737;49.908;8.126;2022-08-03T04:46:00;16.80;99.90
34492;DHT22;20737;49.908;8.126;2022-08-03T04:48:28;16.90;99.90
34492;DHT22;20737;49.908;8.126;2022-08-03T04:50:55;16.90;99.90
34492;DHT22;20737;49.908;8.126;2022-08-03T04:53:23;16.90;99.90
34492;DHT22;20737;49.908;8.126;2022-08-03T04:55:50;17.00;99.90
34492;DHT22;20737;49.908;8.126;2022-08-03T04:58:16;17.10;99.90
34492;DHT22;20737;49.908;8.126;2022-08-03T05:00:43;17.10;99.90
34492;DHT22;20737;49.908;8.126;2022-08-03T05:03:10;17.20;99.90
34492;DHT22;20737;49.908;8.126;2022-08-03T05:05:37;17.20;99.90
34492;DHT22;20737;49.908;8.126;2022-08-03T05:08:04;17.30;99.90
34492;DHT22;20737;49.908;8.126;2022-08-03T05:10:32;17.40;99.90
34492;DHT22;20737;49.908;8.126;2022-08-03T05:12:59;17.60;99.90
34492;DHT22;20737;49.908;8.126;2022-08-03T05:15:26;17.50;99.90
34492;DHT22;20737;49.908;8.126;2022-08-03T05:17:52;17.70;99.90
34492;DHT22;20737;49.908;8.126;2022-08-03T05:20:19;17.70;99.90
34492;DHT22;20737;49.908;8.126;2022-08-03T05:22:46;17.80;99.90
34492;DHT22;20737;49.908;8.126;2022-08-03T05:25:13;17.90;99.90
34492;DHT22;20737;49.908;8.126;2022-08-03T05:27:41;18.00;99.90
34492;DHT22;20737;49.908;8.126;2022-08-03T05:30:08;18.10;99.90
34492;DHT22;20737;49.908;8.126;2022-08-03T05:32:35;18.10;99.90
34492;DHT22;20737;49.908;8.126;2022-08-03T05:35:04;18.20;99.90
34492;DHT22;20737;49.908;8.126;2022-08-03T05:37:31;18.40;99.90
34492;DHT22;20737;49.908;8.126;2022-08-03T05:39:58;18.60;99.90
34492;DHT22;20737;49.908;8.126;2022-08-03T05:42:24;18.80;99.90
34492;DHT22;20737;49.908;8.126;2022-08-03T05:44:53;18.90;99.90
34492;DHT22;20737;49.908;8.126;2022-08-03T05:47:19;19.10;99.90
34492;DHT22;20737;49.908;8.126;2022-08-03T05:49:46;19.20;99.90
34492;DHT22;20737;49.908;8.126;2022-08-03T05:52:13;19.30;99.90
34492;DHT22;20737;49.908;8.126;2022-08-03T05:54:40;19.40;99.90
34492;DHT22;20737;49.908;8.126;2022-08-03T05:57:06;19.60;99.90
34492;DHT22;20737;49.908;8.126;2022-08-03T05:59:33;19.70;99.90
34492;DHT22;20737;49.908;8.126;2022-08-03T06:02:01;19.80;99.90
34492;DHT22;20737;49.908;8.126;2022-08-03T06:04:28;20.00;99.90
34492;DHT22;20737;49.908;8.126;2022-08-03T06:06:55;20.10;99.90
34492;DHT22;20737;49.908;8.126;2022-08-03T06:09:22;20.20;99.90
34492;DHT22;20737;49.908;8.126;2022-08-03T06:11:49;20.40;99.90
34492;DHT22;20737;49.908;8.126;2022-08-03T06:14:15;20.60;99.90
34492;DHT22;20737;49.908;8.126;2022-08-03T06:16:42;20.70;99.90
34492;DHT22;20737;49.908;8.126;2022-08-03T06:19:10;20.90;99.90
34492;DHT22;20737;49.908;8.126;2022-08-03T06:21:37;21.10;99.90
34492;DHT22;20737;49.908;8.126;2022-08-03T06:24:04;21.40;99.90
34492;DHT22;20737;49.908;8.126;2022-08-03T06:26:31;21.60;99.90
34492;DHT22;20737;49.908;8.126;2022-08-03T06:28:58;21.70;99.90
34492;DHT22;20737;49.908;8.126;2022-08-03T06:31:26;21.90;99.90
34492;DHT22;20737;49.908;8.126;2022-08-03T06:33:54;22.00;99.90
34492;DHT22;20737;49.908;8.126;2022-08-03T06:36:22;22.20;99.90
34492;DHT22;20737;49.908;8.126;2022-08-03T06:38:50;22.30;99.90
34492;DHT22;20737;49.908;8.126;2022-08-03T06:41:17;22.50;99.90
34492;DHT22;20737;49.908;8.126;2022-08-03T06:43:44;22.50;99.90
34492;DHT22;20737;49.908;8.126;2022-08-03T06:46:11;22.80;99.90
34492;DHT22;20737;49.908;8.126;2022-08-03T06:48:38;22.90;99.90
34492;DHT22;20737;49.908;8.126;2022-08-03T06:51:04;23.10;99.90
34492;DHT22;20737;49.908;8.126;2022-08-03T06:53:33;23.30;99.90
34492;DHT22;20737;49.908;8.126;2022-08-03T06:55:59;23.50;99.90
34492;DHT22;20737;49.908;8.126;2022-08-03T06:58:26;23.80;99.90
34492;DHT22;20737;49.908;8.126;2022-08-03T07:00:53;24.00;99.90
34492;DHT22;20737;49.908;8.126;2022-08-03T07:03:20;24.30;99.90
34492;DHT22;20737;49.908;8.126;2022-08-03T07:05:46;24.60;99.90
34492;DHT22;20737;49.908;8.126;2022-08-03T07:08:14;24.80;99.90
34492;DHT22;20737;49.908;8.126;2022-08-03T07:10:42;25.10;99.90
34492;DHT22;20737;49.908;8.126;2022-08-03T07:13:09;25.50;99.90
34492;DHT22;20737;49.908;8.126;2022-08-03T07:15:36;26.00;99.90
34492;DHT22;20737;49.908;8.126;2022-08-03T07:18:03;26.90;98.20
34492;DHT22;20737;49.908;8.126;2022-08-03T07:20:31;28.00;96.10
34492;DHT22;20737;49.908;8.126;2022-08-03T07:22:58;29.10;91.60
34492;DHT22;20737;49.908;8.126;2022-08-03T07:25:24;29.90;85.70
34492;DHT22;20737;49.908;8.126;2022-08-03T07:27:52;30.60;80.30
34492;DHT22;20737;49.908;8.126;2022-08-03T07:30:19;31.20;77.60
34492;DHT22;20737;49.908;8.126;2022-08-03T07:32:46;31.60;71.90
34492;DHT22;20737;49.908;8.126;2022-08-03T07:35:13;32.70;69.30
34492;DHT22;20737;49.908;8.126;2022-08-03T07:37:40;33.00;65.40
34492;DHT22;20737;49.908;8.126;2022-08-03T07:40:07;33.10;61.90
34492;DHT22;20737;49.908;8.126;2022-08-03T07:42:34;33.10;61.50
34492;DHT22;20737;49.908;8.126;2022-08-03T07:45:02;33.70;61.20
34492;DHT22;20737;49.908;8.126;2022-08-03T07:47:30;34.00;59.40
34492;DHT22;20737;49.908;8.126;2022-08-03T07:49:57;34.10;56.80
34492;DHT22;20737;49.908;8.126;2022-08-03T07:52:24;34.40;57.30
34492;DHT22;20737;49.908;8.126;2022-08-03T07:55:08;34.40;53.80
34492;DHT22;20737;49.908;8.126;2022-08-03T07:57:35;34.40;53.70
34492;DHT22;20737;49.908;8.126;2022-08-03T08:00:10;34.90;54.00
34492;DHT22;20737;49.908;8.126;2022-08-03T08:02:38;35.20;52.10
34492;DHT22;20737;49.908;8.126;2022-08-03T08:05:05;35.60;52.00
34492;DHT22;20737;49.908;8.126;2022-08-03T08:07:32;36.20;50.70
34492;DHT22;20737;49.908;8.126;2022-08-03T08:09:59;36.10;49.60
34492;DHT22;20737;49.908;8.126;2022-08-03T08:12:26;36.20;49.90
34492;DHT22;20737;49.908;8.126;2022-08-03T08:14:53;36.10;46.90
34492;DHT22;20737;49.908;8.126;2022-08-03T08:17:21;36.70;46.10
34492;DHT22;20737;49.908;8.126;2022-08-03T08:19:49;36.60;46.60
34492;DHT22;20737;49.908;8.126;2022-08-03T08:22:15;36.90;45.90
34492;DHT22;20737;49.908;8.126;2022-08-03T08:24:42;37.00;45.20
34492;DHT22;20737;49.908;8.126;2022-08-03T08:27:09;36.70;46.60
34492;DHT22;20737;49.908;8.126;2022-08-03T08:29:36;37.00;46.60
34492;DHT22;20737;49.908;8.126;2022-08-03T08:32:04;37.10;44.50
34492;DHT22;20737;49.908;8.126;2022-08-03T08:34:32;37.50;44.10
34492;DHT22;20737;49.908;8.126;2022-08-03T08:36:59;38.20;43.20
34492;DHT22;20737;49.908;8.126;2022-08-03T08:39:26;38.10;40.80
34492;DHT22;20737;49.908;8.126;2022-08-03T08:41:53;38.20;40.90
34492;DHT22;20737;49.908;8.126;2022-08-03T08:44:20;39.30;40.30
34492;DHT22;20737;49.908;8.126;2022-08-03T08:46:47;39.00;40.70
34492;DHT22;20737;49.908;8.126;2022-08-03T08:49:17;39.00;40.60
34492;DHT22;20737;49.908;8.126;2022-08-03T08:51:48;39.80;38.20
34492;DHT22;20737;49.908;8.126;2022-08-03T08:54:17;39.80;38.10
34492;DHT22;20737;49.908;8.126;2022-08-03T08:56:47;40.70;37.00
34492;DHT22;20737;49.908;8.126;2022-08-03T08:59:14;40.20;36.70
34492;DHT22;20737;49.908;8.126;2022-08-03T09:01:41;39.90;36.50
34492;DHT22;20737;49.908;8.126;2022-08-03T09:04:08;40.30;36.90
34492;DHT22;20737;49.908;8.126;2022-08-03T09:06:35;40.20;36.60
34492;DHT22;20737;49.908;8.126;2022-08-03T09:09:05;41.20;35.90
34492;DHT22;20737;49.908;8.126;2022-08-03T09:11:32;41.50;35.80
34492;DHT22;20737;49.908;8.126;2022-08-03T09:14:00;41.20;33.90
34492;DHT22;20737;49.908;8.126;2022-08-03T09:16:27;41.30;35.40
34492;DHT22;20737;49.908;8.126;2022-08-03T09:18:54;41.80;35.10
34492;DHT22;20737;49.908;8.126;2022-08-03T09:21:22;42.10;33.00
34492;DHT22;20737;49.908;8.126;2022-08-03T09:23:51;41.70;32.50
34492;DHT22;20737;49.908;8.126;2022-08-03T09:26:24;41.80;33.50
34492;DHT22;20737;49.908;8.126;2022-08-03T09:28:55;41.90;33.40
34492;DHT22;20737;49.908;8.126;2022-08-03T09:31:33;42.10;33.30
34492;DHT22;20737;49.908;8.126;2022-08-03T09:34:03;42.70;33.00
34492;DHT22;20737;49.908;8.126;2022-08-03T09:36:37;42.90;32.60
34492;DHT22;20737;49.908;8.126;2022-08-03T09:39:06;43.20;32.10
34492;DHT22;20737;49.908;8.126;2022-08-03T09:41:37;43.10;31.50
34492;DHT22;20737;49.908;8.126;2022-08-03T09:44:04;43.60;30.30
34492;DHT22;20737;49.908;8.126;2022-08-03T09:46:44;44.10;31.10
34492;DHT22;20737;49.908;8.126;2022-08-03T09:49:12;43.90;30.00
34492;DHT22;20737;49.908;8.126;2022-08-03T09:51:40;44.20;30.70
34492;DHT22;20737;49.908;8.126;2022-08-03T09:54:07;44.00;29.50
34492;DHT22;20737;49.908;8.126;2022-08-03T09:56:40;44.20;29.60
34492;DHT22;20737;49.908;8.126;2022-08-03T09:59:07;43.90;29.80
34492;DHT22;20737;49.908;8.126;2022-08-03T10:01:35;44.40;29.40
34492;DHT22;20737;49.908;8.126;2022-08-03T10:04:04;44.30;29.20
34492;DHT22;20737;49.908;8.126;2022-08-03T10:06:30;44.90;29.20
34492;DHT22;20737;49.908;8.126;2022-08-03T10:09:06;43.90;28.60
34492;DHT22;20737;49.908;8.126;2022-08-03T10:11:33;43.90;28.90
34492;DHT22;20737;49.908;8.126;2022-08-03T10:14:03;44.80;28.60
34492;DHT22;20737;49.908;8.126;2022-08-03T10:16:33;45.00;28.70
34492;DHT22;20737;49.908;8.126;2022-08-03T10:19:01;45.30;28.90
34492;DHT22;20737;49.908;8.126;2022-08-03T10:21:31;44.70;28.10
34492;DHT22;20737;49.908;8.126;2022-08-03T10:24:02;44.30;28.40
34492;DHT22;20737;49.908;8.126;2022-08-03T10:26:30;44.50;29.70
34492;DHT22;20737;49.908;8.126;2022-08-03T10:28:59;44.90;28.00
34492;DHT22;20737;49.908;8.126;2022-08-03T10:31:34;45.10;28.10
34492;DHT22;20737;49.908;8.126;2022-08-03T10:34:04;45.30;28.50
34492;DHT22;20737;49.908;8.126;2022-08-03T10:36:32;45.00;27.80
34492;DHT22;20737;49.908;8.126;2022-08-03T10:39:02;44.80;29.00
34492;DHT22;20737;49.908;8.126;2022-08-03T10:41:31;45.40;26.80
34492;DHT22;20737;49.908;8.126;2022-08-03T10:44:02;45.30;27.50
34492;DHT22;20737;49.908;8.126;2022-08-03T10:46:32;44.60;27.60
34492;DHT22;20737;49.908;8.126;2022-08-03T10:49:00;45.30;27.00
34492;DHT22;20737;49.908;8.126;2022-08-03T10:51:28;44.80;26.90
34492;DHT22;20737;49.908;8.126;2022-08-03T10:53:56;44.70;27.30
34492;DHT22;20737;49.908;8.126;2022-08-03T10:56:39;44.70;27.60
34492;DHT22;20737;49.908;8.126;2022-08-03T10:59:58;44.60;27.30
34492;DHT22;20737;49.908;8.126;2022-08-03T11:03:05;44.60;27.30
34492;DHT22;20737;49.908;8.126;2022-08-03T11:05:35;44.30;28.20
34492;DHT22;20737;49.908;8.126;2022-08-03T11:08:32;43.90;27.70
34492;DHT22;20737;49.908;8.126;2022-08-03T11:11:02;43.90;27.70
34492;DHT22;20737;49.908;8.126;2022-08-03T11:13:30;44.20;27.90
34492;DHT22;20737;49.908;8.126;2022-08-03T11:16:01;44.70;27.00
34492;DHT22;20737;49.908;8.126;2022-08-03T11:18:30;44.20;27.90
34492;DHT22;20737;49.908;8.126;2022-08-03T11:20:58;43.70;27.50
34492;DHT22;20737;49.908;8.126;2022-08-03T11:23:45;43.80;28.30
34492;DHT22;20737;49.908;8.126;2022-08-03T11:26:15;43.40;27.80
34492;DHT22;20737;49.908;8.126;2022-08-03T11:28:43;43.80;27.70
34492;DHT22;20737;49.908;8.126;2022-08-03T11:31:44;43.20;28.90
34492;DHT22;20737;49.908;8.126;2022-08-03T11:34:14;42.60;28.50
34492;DHT22;20737;49.908;8.126;2022-08-03T11:37:18;42.40;28.60
34492;DHT22;20737;49.908;8.126;2022-08-03T11:39:47;42.30;28.40
34492;DHT22;20737;49.908;8.126;2022-08-03T11:42:39;42.30;29.00
34492;DHT22;20737;49.908;8.126;2022-08-03T11:45:09;42.20;30.40
34492;DHT22;20737;49.908;8.126;2022-08-03T11:47:37;42.20;29.30
34492;DHT22;20737;49.908;8.126;2022-08-03T11:50:07;42.40;28.80
34492;DHT22;20737;49.908;8.126;2022-08-03T11:52:38;41.90;29.50
34492;DHT22;20737;49.908;8.126;2022-08-03T11:55:22;41.30;30.80
34492;DHT22;20737;49.908;8.126;2022-08-03T11:57:49;40.30;31.50
34492;DHT22;20737;49.908;8.126;2022-08-03T12:00:25;39.80;31.70
34492;DHT22;20737;49.908;8.126;2022-08-03T12:02:56;39.20;32.20
34492;DHT22;20737;49.908;8.126;2022-08-03T12:05:35;38.70;34.20
34492;DHT22;20737;49.908;8.126;2022-08-03T12:08:03;38.50;34.10
34492;DHT22;20737;49.908;8.126;2022-08-03T12:10:30;38.20;34.40
34492;DHT22;20737;49.908;8.126;2022-08-03T12:12:58;38.10;35.00
34492;DHT22;20737;49.908;8.126;2022-08-03T12:15:26;37.90;33.90
34492;DHT22;20737;49.908;8.126;2022-08-03T12:17:53;38.00;34.50
34492;DHT22;20737;49.908;8.126;2022-08-03T12:20:21;38.00;35.60
34492;DHT22;20737;49.908;8.126;2022-08-03T12:22:50;37.90;35.50
34492;DHT22;20737;49.908;8.126;2022-08-03T12:25:21;38.10;33.90
34492;DHT22;20737;49.908;8.126;2022-08-03T12:27:48;37.90;34.40
34492;DHT22;20737;49.908;8.126;2022-08-03T12:30:15;37.80;33.00
34492;DHT22;20737;49.908;8.126;2022-08-03T12:32:43;38.10;34.50
34492;DHT22;20737;49.908;8.126;2022-08-03T12:35:10;37.80;33.90
34492;DHT22;20737;49.908;8.126;2022-08-03T12:37:47;37.40;34.30
34492;DHT22;20737;49.908;8.126;2022-08-03T12:40:23;37.10;35.70
34492;DHT22;20737;49.908;8.126;2022-08-03T12:42:50;37.40;35.50
34492;DHT22;20737;49.908;8.126;2022-08-03T12:45:19;37.20;35.00
34492;DHT22;20737;49.908;8.126;2022-08-03T12:47:51;37.00;36.00
34492;DHT22;20737;49.908;8.126;2022-08-03T12:50:25;37.20;36.30
34492;DHT22;20737;49.908;8.126;2022-08-03T12:52:52;36.90;35.30
34492;DHT22;20737;49.908;8.126;2022-08-03T12:55:22;37.00;35.20
34492;DHT22;20737;49.908;8.126;2022-08-03T12:57:49;37.00;36.30
34492;DHT22;20737;49.908;8.126;2022-08-03T13:00:18;37.10;36.70
34492;DHT22;20737;49.908;8.126;2022-08-03T13:02:45;37.10;35.00
34492;DHT22;20737;49.908;8.126;2022-08-03T13:05:13;37.10;35.90
34492;DHT22;20737;49.908;8.126;2022-08-03T13:07:40;37.20;35.20
34492;DHT22;20737;49.908;8.126;2022-08-03T13:10:08;37.40;35.40
34492;DHT22;20737;49.908;8.126;2022-08-03T13:12:46;37.40;35.00
34492;DHT22;20737;49.908;8.126;2022-08-03T13:15:13;37.30;35.00
34492;DHT22;20737;49.908;8.126;2022-08-03T13:17:40;37.10;35.10
34492;DHT22;20737;49.908;8.126;2022-08-03T13:20:08;37.10;35.00
34492;DHT22;20737;49.908;8.126;2022-08-03T13:22:35;37.10;36.20
34492;DHT22;20737;49.908;8.126;2022-08-03T13:25:02;36.90;35.50
34492;DHT22;20737;49.908;8.126;2022-08-03T13:27:30;36.90;35.50
34492;DHT22;20737;49.908;8.126;2022-08-03T13:29:58;36.90;36.70
34492;DHT22;20737;49.908;8.126;2022-08-03T13:32:25;36.80;35.80
34492;DHT22;20737;49.908;8.126;2022-08-03T13:34:51;37.10;36.90
34492;DHT22;20737;49.908;8.126;2022-08-03T13:37:19;37.00;36.20
34492;DHT22;20737;49.908;8.126;2022-08-03T13:39:46;36.90;35.10
34492;DHT22;20737;49.908;8.126;2022-08-03T13:42:13;36.80;36.30
34492;DHT22;20737;49.908;8.126;2022-08-03T13:44:40;36.80;35.70
34492;DHT22;20737;49.908;8.126;2022-08-03T13:47:08;36.70;35.90
34492;DHT22;20737;49.908;8.126;2022-08-03T13:49:35;36.70;36.40
34492;DHT22;20737;49.908;8.126;2022-08-03T13:52:01;36.90;36.50
34492;DHT22;20737;49.908;8.126;2022-08-03T13:54:28;37.00;36.20
34492;DHT22;20737;49.908;8.126;2022-08-03T13:56:55;36.90;35.80
34492;DHT22;20737;49.908;8.126;2022-08-03T13:59:23;36.90;35.60
34492;DHT22;20737;49.908;8.126;2022-08-03T14:01:51;37.20;35.30
34492;DHT22;20737;49.908;8.126;2022-08-03T14:04:20;37.10;35.60
34492;DHT22;20737;49.908;8.126;2022-08-03T14:06:47;37.00;34.10
34492;DHT22;20737;49.908;8.126;2022-08-03T14:09:14;37.20;35.30
34492;DHT22;20737;49.908;8.126;2022-08-03T14:11:41;37.20;34.50
34492;DHT22;20737;49.908;8.126;2022-08-03T14:14:09;37.00;35.40
34492;DHT22;20737;49.908;8.126;2022-08-03T14:16:36;37.10;35.50
34492;DHT22;20737;49.908;8.126;2022-08-03T14:19:03;37.10;35.90
34492;DHT22;20737;49.908;8.126;2022-08-03T14:21:33;37.20;35.70
34492;DHT22;20737;49.908;8.126;2022-08-03T14:24:00;37.10;35.80
34492;DHT22;20737;49.908;8.126;2022-08-03T14:26:27;37.40;34.70
34492;DHT22;20737;49.908;8.126;2022-08-03T14:28:54;37.40;34.30
34492;DHT22;20737;49.908;8.126;2022-08-03T14:31:21;37.00;34.20
34492;DHT22;20737;49.908;8.126;2022-08-03T14:33:49;36.90;34.90
34492;DHT22;20737;49.908;8.126;2022-08-03T14:36:15;37.00;34.70
34492;DHT22;20737;49.908;8.126;2022-08-03T14:38:44;36.80;34.00
34492;DHT22;20737;49.908;8.126;2022-08-03T14:41:11;36.80;35.80
34492;DHT22;20737;49.908;8.126;2022-08-03T14:43:37;36.90;35.40
34492;DHT22;20737;49.908;8.126;2022-08-03T14:46:04;37.00;36.30
34492;DHT22;20737;49.908;8.126;2022-08-03T14:48:31;37.10;35.40
34492;DHT22;20737;49.908;8.126;2022-08-03T14:50:58;36.90;35.50
34492;DHT22;20737;49.908;8.126;2022-08-03T14:53:24;37.00;35.50
34492;DHT22;20737;49.908;8.126;2022-08-03T14:55:54;36.80;36.00
34492;DHT22;20737;49.908;8.126;2022-08-03T14:58:22;36.90;35.40
34492;DHT22;20737;49.908;8.126;2022-08-03T15:00:52;37.00;35.60
34492;DHT22;20737;49.908;8.126;2022-08-03T15:03:20;37.10;37.40
34492;DHT22;20737;49.908;8.126;2022-08-03T15:05:47;37.10;36.40
34492;DHT22;20737;49.908;8.126;2022-08-03T15:08:14;37.10;35.50
34492;DHT22;20737;49.908;8.126;2022-08-03T15:10:41;36.90;37.30
34492;DHT22;20737;49.908;8.126;2022-08-03T15:13:09;36.90;36.00
34492;DHT22;20737;49.908;8.126;2022-08-03T15:15:36;36.50;35.70
34492;DHT22;20737;49.908;8.126;2022-08-03T15:18:03;36.40;36.20
34492;DHT22;20737;49.908;8.126;2022-08-03T15:20:30;36.30;36.30
34492;DHT22;20737;49.908;8.126;2022-08-03T15:22:57;36.50;36.30
34492;DHT22;20737;49.908;8.126;2022-08-03T15:25:24;36.50;36.80
34492;DHT22;20737;49.908;8.126;2022-08-03T15:27:51;36.40;35.80
34492;DHT22;20737;49.908;8.126;2022-08-03T15:30:19;36.60;36.90
34492;DHT22;20737;49.908;8.126;2022-08-03T15:32:46;36.60;37.10
34492;DHT22;20737;49.908;8.126;2022-08-03T15:35:12;36.60;35.80
34492;DHT22;20737;49.908;8.126;2022-08-03T15:37:40;36.70;35.80
34492;DHT22;20737;49.908;8.126;2022-08-03T15:40:07;36.60;36.70
34492;DHT22;20737;49.908;8.126;2022-08-03T15:42:34;36.60;35.50